Juanita, Washington
Current Conditions -  °F | °C
As of 7:53 AM on Sunday 21 Dec 2014 (Local Time) from KBFI Reporting Station
Overcast Overcast  
Wind Chill: 54°   Ceiling: 1700
Heat Index: 54°   Visibility: 10mi
Dew Point: 47°   Wind: 3mph
Humidity: 77%   Direction: 220°SW
Pressure: 29.84"   Gusts: NA
Location:  47.7179°N, 122.204°W
Report Text: KBFI 211553Z 22003KT 10SM OVC017 12/08 A2984 RMK AO2 SLP105 T01220083
Loading
Personal Weather Stations






























Interactive Weather Map New forecast layout! Learn more

10-Day Weather Forecast

Advertisements
Track Severe Weather on mobile